FDX8T YMML-YBAS
Flight info
| Callsign | FDX8T |
|---|---|
| Flight time | 2h 42m |
| Altitude | 38000 |
| Route | ML H164 LEC A461 AS |
| Aircraft | B77L/H-SDE1E2E3FGHIJ2J3J4J5M1RWXY/LB1D1 |
Departure
| Time | 2026-04-14 19:16 |
|---|---|
| Airport | Melbourne Airport (YMML) |
Arrival
| Time | 2026-04-14 21:58 |
|---|---|
| Airport | Alice Springs Airport (YBAS) |
| Time | Latitude | Longitude | Altitude | Speed | Heading |
|---|---|---|---|---|---|
| 2026-04-14 18:37 | -37.67809 | 144.84878 | 351 ft | 0 kts | 172° |
| 2026-04-14 18:41 | -37.67808 | 144.84878 | 351 ft | 0 kts | 172° |
| 2026-04-14 19:01 | -37.67797 | 144.84876 | 359 ft | 4 kts | 172° |
| 2026-04-14 19:01 | -37.67770 | 144.84872 | 360 ft | 4 kts | 172° |
| 2026-04-14 19:02 | -37.67748 | 144.84868 | 361 ft | 5 kts | 172° |
| 2026-04-14 19:05 | -37.67751 | 144.84869 | 361 ft | 1 kts | 172° |
| 2026-04-14 19:05 | -37.67760 | 144.84870 | 359 ft | 2 kts | 173° |
| 2026-04-14 19:05 | -37.67766 | 144.84871 | 361 ft | 0 kts | 173° |
| 2026-04-14 19:07 | -37.67767 | 144.84871 | 361 ft | 0 kts | 173° |
| 2026-04-14 19:07 | -37.67772 | 144.84871 | 360 ft | 1 kts | 176° |
| 2026-04-14 19:07 | -37.67780 | 144.84870 | 361 ft | 2 kts | 186° |
| 2026-04-14 19:08 | -37.67793 | 144.84868 | 358 ft | 2 kts | 187° |
| 2026-04-14 19:08 | -37.67812 | 144.84864 | 357 ft | 3 kts | 196° |
| 2026-04-14 19:08 | -37.67823 | 144.84839 | 361 ft | 4 kts | 260° |
| 2026-04-14 19:08 | -37.67810 | 144.84807 | 361 ft | 6 kts | 312° |
| 2026-04-14 19:09 | -37.67762 | 144.84753 | 359 ft | 13 kts | 309° |
| 2026-04-14 19:09 | -37.67749 | 144.84645 | 357 ft | 13 kts | 250° |
| 2026-04-14 19:09 | -37.67825 | 144.84596 | 359 ft | 13 kts | 174° |
| 2026-04-14 19:09 | -37.67915 | 144.84619 | 355 ft | 14 kts | 175° |
| 2026-04-14 19:10 | -37.68013 | 144.84637 | 355 ft | 15 kts | 171° |
| 2026-04-14 19:10 | -37.68119 | 144.84659 | 351 ft | 16 kts | 171° |
| 2026-04-14 19:10 | -37.68228 | 144.84681 | 358 ft | 13 kts | 171° |
| 2026-04-14 19:10 | -37.68292 | 144.84694 | 347 ft | 5 kts | 173° |
| 2026-04-14 19:11 | -37.68339 | 144.84678 | 335 ft | 9 kts | 207° |
| 2026-04-14 19:11 | -37.68387 | 144.84608 | 336 ft | 12 kts | 250° |
| 2026-04-14 19:11 | -37.68392 | 144.84494 | 336 ft | 14 kts | 265° |
| 2026-04-14 19:11 | -37.68446 | 144.84392 | 336 ft | 15 kts | 215° |
| 2026-04-14 19:12 | -37.68545 | 144.84335 | 331 ft | 16 kts | 212° |
| 2026-04-14 19:12 | -37.68558 | 144.84241 | 333 ft | 0 kts | 282° |
| 2026-04-14 19:13 | -37.68553 | 144.84215 | 335 ft | 6 kts | 281° |
| 2026-04-14 19:13 | -37.68552 | 144.84208 | 335 ft | 0 kts | 281° |
| 2026-04-14 19:13 | -37.68552 | 144.84207 | 335 ft | 1 kts | 281° |
| 2026-04-14 19:14 | -37.68545 | 144.84160 | 334 ft | 8 kts | 281° |
| 2026-04-14 19:14 | -37.68527 | 144.84100 | 334 ft | 7 kts | 316° |
| 2026-04-14 19:14 | -37.68505 | 144.84088 | 335 ft | 0 kts | 343° |
| 2026-04-14 19:15 | -37.68486 | 144.84081 | 335 ft | 15 kts | 346° |
| 2026-04-14 19:15 | -37.68288 | 144.84052 | 351 ft | 32 kts | 349° |
| 2026-04-14 19:15 | -37.68012 | 144.83987 | 357 ft | 60 kts | 350° |
| 2026-04-14 19:15 | -37.67340 | 144.83865 | 379 ft | 141 kts | 352° |
| 2026-04-14 19:16 | -37.66115 | 144.83627 | 575 ft | 199 kts | 352° |
| 2026-04-14 19:16 | -37.64749 | 144.83419 | 1666 ft | 199 kts | 354° |
| 2026-04-14 19:16 | -37.63333 | 144.83334 | 2510 ft | 207 kts | 356° |
| 2026-04-14 19:16 | -37.61844 | 144.83400 | 2850 ft | 222 kts | 0° |
| 2026-04-14 19:17 | -37.60254 | 144.83606 | 3218 ft | 235 kts | 4° |
| 2026-04-14 19:17 | -37.58581 | 144.83745 | 3455 ft | 250 kts | 347° |
| 2026-04-14 19:17 | -37.56853 | 144.83245 | 3795 ft | 259 kts | 343° |
| 2026-04-14 19:17 | -37.55180 | 144.82396 | 4210 ft | 262 kts | 316° |
| 2026-04-14 19:18 | -37.54130 | 144.80584 | 4814 ft | 255 kts | 294° |
| 2026-04-14 19:18 | -37.53120 | 144.78706 | 5312 ft | 266 kts | 309° |
| 2026-04-14 19:18 | -37.51815 | 144.77040 | 6040 ft | 268 kts | 313° |
| 2026-04-14 19:18 | -37.50442 | 144.75445 | 6769 ft | 270 kts | 314° |
| 2026-04-14 19:19 | -37.49035 | 144.73851 | 7445 ft | 273 kts | 315° |
| 2026-04-14 19:19 | -37.47621 | 144.72266 | 8197 ft | 272 kts | 314° |
| 2026-04-14 19:19 | -37.46209 | 144.70691 | 8964 ft | 271 kts | 314° |
| 2026-04-14 19:19 | -37.44817 | 144.69141 | 9709 ft | 270 kts | 313° |
| 2026-04-14 19:20 | -37.43409 | 144.67576 | 10386 ft | 273 kts | 313° |
| 2026-04-14 19:20 | -37.41945 | 144.65941 | 10616 ft | 293 kts | 313° |
| 2026-04-14 19:20 | -37.40366 | 144.64177 | 10792 ft | 314 kts | 314° |
| 2026-04-14 19:20 | -37.38670 | 144.62288 | 10970 ft | 337 kts | 314° |
| 2026-04-14 19:21 | -37.36866 | 144.60283 | 11319 ft | 353 kts | 314° |
| 2026-04-14 19:21 | -37.34995 | 144.58211 | 11893 ft | 362 kts | 314° |
| 2026-04-14 19:21 | -37.33086 | 144.56103 | 12666 ft | 367 kts | 314° |
| 2026-04-14 19:21 | -37.31160 | 144.53980 | 13513 ft | 370 kts | 314° |
| 2026-04-14 19:22 | -37.29212 | 144.51831 | 14278 ft | 375 kts | 314° |
| 2026-04-14 19:22 | -37.27237 | 144.49652 | 14973 ft | 379 kts | 314° |
| 2026-04-14 19:22 | -37.25243 | 144.47453 | 15660 ft | 384 kts | 314° |
| 2026-04-14 19:22 | -37.23226 | 144.45230 | 16376 ft | 388 kts | 314° |
| 2026-04-14 19:23 | -37.21187 | 144.42985 | 17091 ft | 391 kts | 314° |
| 2026-04-14 19:23 | -37.19829 | 144.41490 | 17561 ft | 394 kts | 314° |
| 2026-04-14 19:23 | -37.17760 | 144.39214 | 18233 ft | 398 kts | 314° |
| 2026-04-14 19:23 | -37.15668 | 144.36912 | 18850 ft | 402 kts | 314° |
| 2026-04-14 19:24 | -37.13556 | 144.34591 | 19452 ft | 405 kts | 314° |
| 2026-04-14 19:24 | -37.11425 | 144.32252 | 20074 ft | 408 kts | 314° |
| 2026-04-14 19:24 | -37.09281 | 144.29900 | 20682 ft | 411 kts | 314° |
| 2026-04-14 19:24 | -37.07122 | 144.27533 | 21275 ft | 415 kts | 314° |
| 2026-04-14 19:25 | -37.04939 | 144.25142 | 21839 ft | 418 kts | 314° |
| 2026-04-14 19:25 | -37.02735 | 144.22729 | 22386 ft | 422 kts | 314° |
| 2026-04-14 19:25 | -37.00519 | 144.20304 | 22941 ft | 426 kts | 314° |
| 2026-04-14 19:25 | -36.98277 | 144.17854 | 23507 ft | 429 kts | 314° |
| 2026-04-14 19:26 | -36.96015 | 144.15385 | 24026 ft | 433 kts | 314° |
| 2026-04-14 19:26 | -36.93741 | 144.12904 | 24500 ft | 436 kts | 314° |
| 2026-04-14 19:26 | -36.91447 | 144.10404 | 24983 ft | 439 kts | 314° |
| 2026-04-14 19:26 | -36.89171 | 144.07924 | 25458 ft | 441 kts | 314° |
| 2026-04-14 19:27 | -36.86820 | 144.05366 | 25915 ft | 444 kts | 314° |
| 2026-04-14 19:27 | -36.84485 | 144.02826 | 26379 ft | 447 kts | 314° |
| 2026-04-14 19:27 | -36.82161 | 144.00300 | 26821 ft | 450 kts | 315° |
| 2026-04-14 19:27 | -36.79793 | 143.97730 | 27252 ft | 453 kts | 315° |
| 2026-04-14 19:28 | -36.77367 | 143.95179 | 27687 ft | 457 kts | 316° |
| 2026-04-14 19:28 | -36.74868 | 143.92701 | 28117 ft | 461 kts | 317° |
| 2026-04-14 19:28 | -36.72323 | 143.90238 | 28537 ft | 464 kts | 318° |
| 2026-04-14 19:28 | -36.69765 | 143.87777 | 28934 ft | 466 kts | 318° |
| 2026-04-14 19:29 | -36.67191 | 143.85294 | 29314 ft | 469 kts | 318° |
| 2026-04-14 19:29 | -36.64608 | 143.82790 | 29685 ft | 472 kts | 317° |
| 2026-04-14 19:29 | -36.62020 | 143.80270 | 30043 ft | 474 kts | 317° |
| 2026-04-14 19:29 | -36.59424 | 143.77736 | 30455 ft | 473 kts | 317° |
| 2026-04-14 19:30 | -36.56839 | 143.75213 | 30911 ft | 471 kts | 317° |
| 2026-04-14 19:30 | -36.54275 | 143.72710 | 31445 ft | 467 kts | 317° |
| 2026-04-14 19:30 | -36.51729 | 143.70225 | 31924 ft | 464 kts | 317° |
| 2026-04-14 19:30 | -36.49193 | 143.67752 | 32320 ft | 463 kts | 317° |
| 2026-04-14 19:31 | -36.46659 | 143.65282 | 32705 ft | 462 kts | 317° |
| 2026-04-14 19:31 | -36.44128 | 143.62817 | 33111 ft | 461 kts | 317° |
| 2026-04-14 19:31 | -36.41613 | 143.60370 | 33518 ft | 459 kts | 317° |
| 2026-04-14 19:31 | -36.39102 | 143.57930 | 33915 ft | 457 kts | 317° |
| 2026-04-14 19:32 | -36.36599 | 143.55500 | 34149 ft | 459 kts | 317° |
| 2026-04-14 19:32 | -36.31538 | 143.50587 | 34203 ft | 461 kts | 317° |
| 2026-04-14 19:33 | -36.26549 | 143.45761 | 34187 ft | 455 kts | 317° |
| 2026-04-14 19:33 | -36.21569 | 143.40950 | 34204 ft | 452 kts | 317° |
| 2026-04-14 19:34 | -36.14135 | 143.33778 | 34217 ft | 451 kts | 317° |
| 2026-04-14 19:34 | -36.09177 | 143.29005 | 34217 ft | 452 kts | 317° |
| 2026-04-14 19:35 | -36.04206 | 143.24227 | 34213 ft | 453 kts | 317° |
| 2026-04-14 19:35 | -35.99217 | 143.19441 | 34221 ft | 455 kts | 317° |
| 2026-04-14 19:36 | -35.94210 | 143.14645 | 34210 ft | 456 kts | 317° |
| 2026-04-14 19:36 | -35.89227 | 143.09882 | 34219 ft | 456 kts | 317° |
| 2026-04-14 19:37 | -35.84206 | 143.05088 | 34220 ft | 457 kts | 317° |
| 2026-04-14 19:37 | -35.79176 | 143.00294 | 34209 ft | 457 kts | 317° |
| 2026-04-14 19:38 | -35.74147 | 142.95509 | 34230 ft | 457 kts | 317° |
| 2026-04-14 19:38 | -35.69109 | 142.90724 | 34219 ft | 457 kts | 317° |
| 2026-04-14 19:39 | -35.64080 | 142.85954 | 34215 ft | 456 kts | 318° |
| 2026-04-14 19:39 | -35.59052 | 142.81191 | 34218 ft | 456 kts | 318° |
| 2026-04-14 19:40 | -35.54026 | 142.76441 | 34211 ft | 456 kts | 318° |
| 2026-04-14 19:40 | -35.48991 | 142.71693 | 34214 ft | 456 kts | 318° |
| 2026-04-14 19:41 | -35.43961 | 142.66957 | 34228 ft | 456 kts | 318° |
| 2026-04-14 19:41 | -35.38927 | 142.62223 | 34220 ft | 456 kts | 318° |
| 2026-04-14 19:42 | -35.33926 | 142.57526 | 34218 ft | 456 kts | 318° |
| 2026-04-14 19:42 | -35.28886 | 142.52801 | 34223 ft | 456 kts | 318° |
| 2026-04-14 19:43 | -35.23846 | 142.48084 | 34223 ft | 456 kts | 318° |
| 2026-04-14 19:43 | -35.18799 | 142.43368 | 34229 ft | 457 kts | 318° |
| 2026-04-14 19:44 | -35.13743 | 142.38650 | 34221 ft | 457 kts | 318° |
| 2026-04-14 19:44 | -35.08677 | 142.33931 | 34221 ft | 458 kts | 318° |
| 2026-04-14 19:45 | -35.03614 | 142.29222 | 34215 ft | 458 kts | 319° |
| 2026-04-14 19:45 | -34.98547 | 142.24518 | 34223 ft | 457 kts | 319° |
| 2026-04-14 19:46 | -34.93478 | 142.19818 | 34229 ft | 458 kts | 319° |
| 2026-04-14 19:46 | -34.88407 | 142.15125 | 34228 ft | 458 kts | 319° |
| 2026-04-14 19:47 | -34.83332 | 142.10435 | 34232 ft | 458 kts | 319° |
| 2026-04-14 19:47 | -34.78258 | 142.05754 | 34230 ft | 458 kts | 319° |
| 2026-04-14 19:48 | -34.73179 | 142.01075 | 34218 ft | 458 kts | 319° |
| 2026-04-14 19:48 | -34.68132 | 141.96433 | 34230 ft | 458 kts | 319° |
| 2026-04-14 19:49 | -34.63048 | 141.91765 | 34230 ft | 458 kts | 319° |
| 2026-04-14 19:49 | -34.57960 | 141.87099 | 34233 ft | 458 kts | 319° |
| 2026-04-14 19:50 | -34.52864 | 141.82434 | 34231 ft | 458 kts | 319° |
| 2026-04-14 19:50 | -34.47770 | 141.77779 | 34224 ft | 459 kts | 319° |
| 2026-04-14 19:51 | -34.42673 | 141.73128 | 34224 ft | 459 kts | 319° |
| 2026-04-14 19:51 | -34.37573 | 141.68481 | 34231 ft | 459 kts | 319° |
| 2026-04-14 19:52 | -34.32468 | 141.63837 | 34229 ft | 459 kts | 319° |
| 2026-04-14 19:52 | -34.27357 | 141.59195 | 34230 ft | 459 kts | 319° |
| 2026-04-14 19:53 | -34.22251 | 141.54565 | 34230 ft | 459 kts | 319° |
| 2026-04-14 19:53 | -34.17142 | 141.49939 | 34225 ft | 459 kts | 319° |
| 2026-04-14 19:54 | -34.09507 | 141.43040 | 34224 ft | 458 kts | 319° |
| 2026-04-14 19:55 | -34.04419 | 141.38450 | 34228 ft | 457 kts | 319° |
| 2026-04-14 19:55 | -33.99319 | 141.33858 | 34225 ft | 457 kts | 319° |
| 2026-04-14 19:56 | -33.94224 | 141.29275 | 34230 ft | 457 kts | 319° |
| 2026-04-14 19:56 | -33.89129 | 141.24701 | 34227 ft | 457 kts | 319° |
| 2026-04-14 19:57 | -33.84062 | 141.20158 | 34226 ft | 456 kts | 319° |
| 2026-04-14 19:57 | -33.78963 | 141.15594 | 34227 ft | 457 kts | 319° |
| 2026-04-14 19:58 | -33.73867 | 141.11039 | 34225 ft | 457 kts | 319° |
| 2026-04-14 19:58 | -33.68771 | 141.06490 | 34224 ft | 457 kts | 319° |
| 2026-04-14 19:59 | -33.63669 | 141.01942 | 34230 ft | 457 kts | 319° |
| 2026-04-14 19:59 | -33.58562 | 140.97415 | 34229 ft | 457 kts | 320° |
| 2026-04-14 20:00 | -33.53439 | 140.92897 | 34233 ft | 457 kts | 320° |
| 2026-04-14 20:00 | -33.48313 | 140.88382 | 34227 ft | 457 kts | 320° |
| 2026-04-14 20:01 | -33.43194 | 140.83876 | 34229 ft | 456 kts | 320° |
| 2026-04-14 20:01 | -33.38084 | 140.79383 | 34232 ft | 456 kts | 320° |
| 2026-04-14 20:02 | -33.32975 | 140.74898 | 34231 ft | 455 kts | 320° |
| 2026-04-14 20:02 | -33.27893 | 140.70443 | 34230 ft | 455 kts | 320° |
| 2026-04-14 20:03 | -33.22783 | 140.65970 | 34235 ft | 455 kts | 320° |
| 2026-04-14 20:03 | -33.17674 | 140.61504 | 34229 ft | 455 kts | 320° |
| 2026-04-14 20:04 | -33.12570 | 140.57050 | 34233 ft | 454 kts | 320° |
| 2026-04-14 20:04 | -33.07467 | 140.52603 | 34237 ft | 454 kts | 320° |
| 2026-04-14 20:05 | -33.02369 | 140.48167 | 34245 ft | 454 kts | 320° |
| 2026-04-14 20:05 | -32.97264 | 140.43731 | 34241 ft | 454 kts | 320° |
| 2026-04-14 20:06 | -32.92167 | 140.39308 | 34236 ft | 454 kts | 320° |
| 2026-04-14 20:06 | -32.87066 | 140.34889 | 34231 ft | 453 kts | 320° |
| 2026-04-14 20:07 | -32.81973 | 140.30483 | 34235 ft | 452 kts | 320° |
| 2026-04-14 20:07 | -32.76917 | 140.26116 | 34245 ft | 452 kts | 320° |
| 2026-04-14 20:08 | -32.71831 | 140.21729 | 34241 ft | 452 kts | 320° |
| 2026-04-14 20:08 | -32.66747 | 140.17349 | 34245 ft | 451 kts | 320° |
| 2026-04-14 20:09 | -32.61663 | 140.12976 | 34246 ft | 451 kts | 320° |
| 2026-04-14 20:09 | -32.56582 | 140.08612 | 34243 ft | 450 kts | 319° |
| 2026-04-14 20:10 | -32.51509 | 140.04262 | 34244 ft | 449 kts | 320° |
| 2026-04-14 20:10 | -32.46446 | 139.99926 | 34246 ft | 449 kts | 320° |
| 2026-04-14 20:11 | -32.41386 | 139.95598 | 34239 ft | 448 kts | 319° |
| 2026-04-14 20:11 | -32.36332 | 139.91281 | 34248 ft | 448 kts | 320° |
| 2026-04-14 20:12 | -32.32131 | 139.87698 | 34249 ft | 448 kts | 320° |
| 2026-04-14 20:12 | -32.27081 | 139.83396 | 34236 ft | 447 kts | 319° |
| 2026-04-14 20:13 | -32.22033 | 139.79103 | 34242 ft | 447 kts | 319° |
| 2026-04-14 20:13 | -32.16991 | 139.74820 | 34242 ft | 446 kts | 319° |
| 2026-04-14 20:14 | -32.11954 | 139.70547 | 34239 ft | 445 kts | 319° |
| 2026-04-14 20:14 | -32.06954 | 139.66312 | 34240 ft | 445 kts | 319° |
| 2026-04-14 20:15 | -32.01923 | 139.62055 | 34240 ft | 445 kts | 319° |
| 2026-04-14 20:15 | -31.96897 | 139.57809 | 34222 ft | 445 kts | 319° |
| 2026-04-14 20:16 | -31.91872 | 139.53570 | 34230 ft | 443 kts | 319° |
| 2026-04-14 20:16 | -31.86861 | 139.49349 | 34229 ft | 443 kts | 319° |
| 2026-04-14 20:17 | -31.81859 | 139.45141 | 34237 ft | 442 kts | 319° |
| 2026-04-14 20:17 | -31.76852 | 139.40934 | 34232 ft | 442 kts | 319° |
| 2026-04-14 20:18 | -31.71854 | 139.36740 | 34230 ft | 442 kts | 319° |
| 2026-04-14 20:18 | -31.66852 | 139.32549 | 34231 ft | 442 kts | 319° |
| 2026-04-14 20:19 | -31.61856 | 139.28368 | 34224 ft | 440 kts | 319° |
| 2026-04-14 20:19 | -31.56868 | 139.24201 | 34227 ft | 440 kts | 319° |
| 2026-04-14 20:20 | -31.51888 | 139.20044 | 34226 ft | 439 kts | 319° |
| 2026-04-14 20:20 | -31.46914 | 139.15899 | 34227 ft | 439 kts | 319° |
| 2026-04-14 20:21 | -31.41975 | 139.11788 | 34234 ft | 439 kts | 319° |
| 2026-04-14 20:21 | -31.36995 | 139.07648 | 34227 ft | 439 kts | 319° |
| 2026-04-14 20:22 | -31.32019 | 139.03518 | 34223 ft | 438 kts | 319° |
| 2026-04-14 20:22 | -31.27047 | 138.99396 | 34237 ft | 438 kts | 319° |
| 2026-04-14 20:23 | -31.22081 | 138.95285 | 34237 ft | 437 kts | 319° |
| 2026-04-14 20:23 | -31.17105 | 138.91170 | 34224 ft | 438 kts | 319° |
| 2026-04-14 20:24 | -31.12165 | 138.87091 | 34228 ft | 438 kts | 319° |
| 2026-04-14 20:24 | -31.07190 | 138.82988 | 34240 ft | 437 kts | 319° |
| 2026-04-14 20:25 | -31.02215 | 138.78891 | 34219 ft | 438 kts | 319° |
| 2026-04-14 20:25 | -30.97242 | 138.74800 | 34227 ft | 437 kts | 319° |
| 2026-04-14 20:26 | -30.92273 | 138.70718 | 34235 ft | 437 kts | 319° |
| 2026-04-14 20:26 | -30.87305 | 138.66643 | 34232 ft | 437 kts | 319° |
| 2026-04-14 20:27 | -30.82330 | 138.62565 | 34224 ft | 437 kts | 319° |
| 2026-04-14 20:27 | -30.77362 | 138.58500 | 34230 ft | 437 kts | 319° |
| 2026-04-14 20:28 | -30.72387 | 138.54434 | 34229 ft | 437 kts | 319° |
| 2026-04-14 20:28 | -30.67440 | 138.50395 | 34224 ft | 437 kts | 319° |
| 2026-04-14 20:29 | -30.62460 | 138.46335 | 34218 ft | 437 kts | 319° |
| 2026-04-14 20:29 | -30.57447 | 138.42331 | 34213 ft | 439 kts | 321° |
| 2026-04-14 20:30 | -30.52253 | 138.38575 | 34213 ft | 439 kts | 323° |
| 2026-04-14 20:30 | -30.47038 | 138.34871 | 34219 ft | 439 kts | 322° |
| 2026-04-14 20:31 | -30.41844 | 138.31146 | 34202 ft | 438 kts | 322° |
| 2026-04-14 20:31 | -30.36673 | 138.27414 | 34214 ft | 438 kts | 322° |
| 2026-04-14 20:32 | -30.31505 | 138.23679 | 34216 ft | 438 kts | 322° |
| 2026-04-14 20:32 | -30.26376 | 138.19975 | 34211 ft | 438 kts | 322° |
| 2026-04-14 20:33 | -30.21207 | 138.16248 | 34216 ft | 437 kts | 322° |
| 2026-04-14 20:33 | -30.16038 | 138.12527 | 34215 ft | 438 kts | 322° |
| 2026-04-14 20:34 | -30.08284 | 138.06954 | 34212 ft | 437 kts | 322° |
| 2026-04-14 20:34 | -30.03117 | 138.03246 | 34212 ft | 437 kts | 322° |
| 2026-04-14 20:35 | -29.97946 | 137.99540 | 34209 ft | 437 kts | 322° |
| 2026-04-14 20:35 | -29.92781 | 137.95842 | 34215 ft | 438 kts | 322° |
| 2026-04-14 20:36 | -29.87603 | 137.92139 | 34213 ft | 438 kts | 323° |
| 2026-04-14 20:36 | -29.82424 | 137.88442 | 34195 ft | 438 kts | 323° |
| 2026-04-14 20:37 | -29.77281 | 137.84774 | 34206 ft | 437 kts | 323° |
| 2026-04-14 20:37 | -29.72105 | 137.81087 | 34206 ft | 437 kts | 323° |
| 2026-04-14 20:38 | -29.66931 | 137.77405 | 34205 ft | 437 kts | 323° |
| 2026-04-14 20:38 | -29.61757 | 137.73729 | 34208 ft | 437 kts | 323° |
| 2026-04-14 20:39 | -29.56582 | 137.70056 | 34206 ft | 437 kts | 323° |
| 2026-04-14 20:39 | -29.51400 | 137.66383 | 34199 ft | 437 kts | 323° |
| 2026-04-14 20:40 | -29.46228 | 137.62721 | 34209 ft | 437 kts | 323° |
| 2026-04-14 20:40 | -29.41050 | 137.59060 | 34195 ft | 437 kts | 323° |
| 2026-04-14 20:41 | -29.35902 | 137.55423 | 34207 ft | 437 kts | 323° |
| 2026-04-14 20:41 | -29.30717 | 137.51766 | 34201 ft | 437 kts | 323° |
| 2026-04-14 20:42 | -29.25534 | 137.48114 | 34188 ft | 437 kts | 323° |
| 2026-04-14 20:43 | -29.17763 | 137.42647 | 34197 ft | 437 kts | 323° |
| 2026-04-14 20:43 | -29.12577 | 137.39004 | 34200 ft | 437 kts | 323° |
| 2026-04-14 20:44 | -29.07391 | 137.35365 | 34198 ft | 437 kts | 323° |
| 2026-04-14 20:44 | -29.02203 | 137.31730 | 34199 ft | 437 kts | 323° |
| 2026-04-14 20:45 | -28.97008 | 137.28093 | 34197 ft | 438 kts | 323° |
| 2026-04-14 20:45 | -28.91816 | 137.24464 | 34189 ft | 437 kts | 324° |
| 2026-04-14 20:46 | -28.86657 | 137.20861 | 34194 ft | 437 kts | 324° |
| 2026-04-14 20:46 | -28.81462 | 137.17238 | 34197 ft | 438 kts | 324° |
| 2026-04-14 20:47 | -28.76264 | 137.13616 | 34195 ft | 438 kts | 324° |
| 2026-04-14 20:47 | -28.71059 | 137.09995 | 34196 ft | 438 kts | 324° |
| 2026-04-14 20:48 | -28.65861 | 137.06382 | 34174 ft | 438 kts | 324° |
| 2026-04-14 20:48 | -28.60664 | 137.02774 | 34186 ft | 438 kts | 324° |
| 2026-04-14 20:49 | -28.55463 | 136.99168 | 34197 ft | 437 kts | 324° |
| 2026-04-14 20:49 | -28.50267 | 136.95569 | 34198 ft | 437 kts | 324° |
| 2026-04-14 20:50 | -28.45064 | 136.91970 | 34189 ft | 437 kts | 324° |
| 2026-04-14 20:50 | -28.39866 | 136.88378 | 34197 ft | 437 kts | 324° |
| 2026-04-14 20:51 | -28.34656 | 136.84782 | 34180 ft | 437 kts | 324° |
| 2026-04-14 20:51 | -28.29453 | 136.81194 | 34187 ft | 437 kts | 324° |
| 2026-04-14 20:52 | -28.24249 | 136.77610 | 34199 ft | 438 kts | 324° |
| 2026-04-14 20:52 | -28.19070 | 136.74058 | 34208 ft | 438 kts | 324° |
| 2026-04-14 20:53 | -28.13846 | 136.70504 | 34188 ft | 438 kts | 324° |
| 2026-04-14 20:53 | -28.08612 | 136.66949 | 34193 ft | 438 kts | 324° |
| 2026-04-14 20:54 | -28.03384 | 136.63399 | 34194 ft | 438 kts | 324° |
| 2026-04-14 20:54 | -27.98152 | 136.59848 | 34196 ft | 438 kts | 324° |
| 2026-04-14 20:55 | -27.92921 | 136.56301 | 34194 ft | 438 kts | 325° |
| 2026-04-14 20:55 | -27.87684 | 136.52754 | 34194 ft | 439 kts | 325° |
| 2026-04-14 20:56 | -27.82448 | 136.49213 | 34196 ft | 439 kts | 325° |
| 2026-04-14 20:56 | -27.77211 | 136.45674 | 34198 ft | 439 kts | 325° |
| 2026-04-14 20:57 | -27.71972 | 136.42138 | 34196 ft | 439 kts | 325° |
| 2026-04-14 20:57 | -27.66733 | 136.38607 | 34198 ft | 438 kts | 325° |
| 2026-04-14 20:58 | -27.61531 | 136.35104 | 34192 ft | 438 kts | 325° |
| 2026-04-14 20:58 | -27.56292 | 136.31580 | 34199 ft | 438 kts | 325° |
| 2026-04-14 20:59 | -27.51059 | 136.28064 | 34197 ft | 438 kts | 325° |
| 2026-04-14 20:59 | -27.45815 | 136.24545 | 34189 ft | 438 kts | 325° |
| 2026-04-14 21:00 | -27.40584 | 136.21039 | 34199 ft | 438 kts | 325° |
| 2026-04-14 21:00 | -27.35351 | 136.17534 | 34197 ft | 438 kts | 325° |
| 2026-04-14 21:01 | -27.30113 | 136.14030 | 34198 ft | 438 kts | 325° |
| 2026-04-14 21:01 | -27.24869 | 136.10526 | 34195 ft | 438 kts | 325° |
| 2026-04-14 21:02 | -27.20512 | 136.07618 | 34196 ft | 438 kts | 325° |
| 2026-04-14 21:02 | -27.14410 | 136.03550 | 34193 ft | 438 kts | 326° |
| 2026-04-14 21:03 | -27.09168 | 136.00059 | 34195 ft | 438 kts | 326° |
| 2026-04-14 21:03 | -27.04772 | 135.97135 | 34195 ft | 438 kts | 326° |
| 2026-04-14 21:04 | -26.99530 | 135.93651 | 34194 ft | 438 kts | 326° |
| 2026-04-14 21:04 | -26.94320 | 135.90192 | 34197 ft | 438 kts | 326° |
| 2026-04-14 21:05 | -26.89072 | 135.86712 | 34183 ft | 438 kts | 326° |
| 2026-04-14 21:05 | -26.83829 | 135.83239 | 34193 ft | 438 kts | 326° |
| 2026-04-14 21:06 | -26.78585 | 135.79768 | 34196 ft | 437 kts | 326° |
| 2026-04-14 21:06 | -26.73349 | 135.76306 | 34198 ft | 437 kts | 326° |
| 2026-04-14 21:07 | -26.68109 | 135.72846 | 34198 ft | 437 kts | 326° |
| 2026-04-14 21:07 | -26.62862 | 135.69388 | 34199 ft | 437 kts | 326° |
| 2026-04-14 21:08 | -26.57617 | 135.65934 | 34189 ft | 437 kts | 326° |
| 2026-04-14 21:08 | -26.52367 | 135.62480 | 34196 ft | 438 kts | 326° |
| 2026-04-14 21:09 | -26.47149 | 135.59050 | 34195 ft | 438 kts | 326° |
| 2026-04-14 21:09 | -26.41895 | 135.55600 | 34198 ft | 438 kts | 326° |
| 2026-04-14 21:10 | -26.36635 | 135.52150 | 34196 ft | 438 kts | 326° |
| 2026-04-14 21:10 | -26.31377 | 135.48705 | 34195 ft | 438 kts | 326° |
| 2026-04-14 21:11 | -26.26120 | 135.45264 | 34196 ft | 438 kts | 326° |
| 2026-04-14 21:11 | -26.20859 | 135.41824 | 34195 ft | 439 kts | 326° |
| 2026-04-14 21:12 | -26.15595 | 135.38385 | 34199 ft | 439 kts | 326° |
| 2026-04-14 21:12 | -26.10315 | 135.34940 | 34197 ft | 439 kts | 326° |
| 2026-04-14 21:13 | -26.05043 | 135.31504 | 34195 ft | 439 kts | 326° |
| 2026-04-14 21:13 | -25.99802 | 135.28092 | 34180 ft | 439 kts | 326° |
| 2026-04-14 21:14 | -25.91890 | 135.22947 | 34195 ft | 439 kts | 326° |
| 2026-04-14 21:14 | -25.86614 | 135.19521 | 34197 ft | 439 kts | 326° |
| 2026-04-14 21:15 | -25.81336 | 135.16097 | 34195 ft | 439 kts | 327° |
| 2026-04-14 21:15 | -25.76053 | 135.12673 | 34197 ft | 439 kts | 327° |
| 2026-04-14 21:16 | -25.70770 | 135.09253 | 34176 ft | 440 kts | 327° |
| 2026-04-14 21:16 | -25.65487 | 135.05837 | 34202 ft | 440 kts | 327° |
| 2026-04-14 21:17 | -25.60198 | 135.02420 | 34191 ft | 440 kts | 327° |
| 2026-04-14 21:17 | -25.54904 | 134.99003 | 34200 ft | 440 kts | 327° |
| 2026-04-14 21:18 | -25.49604 | 134.95586 | 34199 ft | 441 kts | 327° |
| 2026-04-14 21:18 | -25.44337 | 134.92194 | 34199 ft | 441 kts | 327° |
| 2026-04-14 21:19 | -25.39030 | 134.88780 | 34204 ft | 441 kts | 327° |
| 2026-04-14 21:19 | -25.33721 | 134.85367 | 34200 ft | 442 kts | 327° |
| 2026-04-14 21:20 | -25.28404 | 134.81954 | 34187 ft | 442 kts | 327° |
| 2026-04-14 21:20 | -25.23062 | 134.78526 | 33464 ft | 453 kts | 327° |
| 2026-04-14 21:21 | -25.20328 | 134.76772 | 32721 ft | 454 kts | 327° |
| 2026-04-14 21:21 | -25.17592 | 134.75020 | 31843 ft | 454 kts | 327° |
| 2026-04-14 21:21 | -25.14860 | 134.73272 | 31019 ft | 454 kts | 327° |
| 2026-04-14 21:21 | -25.12145 | 134.71536 | 30397 ft | 449 kts | 327° |
| 2026-04-14 21:22 | -25.09448 | 134.69812 | 29638 ft | 446 kts | 327° |
| 2026-04-14 21:22 | -25.06774 | 134.68104 | 28963 ft | 441 kts | 327° |
| 2026-04-14 21:22 | -25.04129 | 134.66413 | 28330 ft | 437 kts | 327° |
| 2026-04-14 21:22 | -25.01506 | 134.64737 | 27714 ft | 433 kts | 327° |
| 2026-04-14 21:23 | -24.98910 | 134.63080 | 27132 ft | 430 kts | 327° |
| 2026-04-14 21:23 | -24.96366 | 134.61456 | 26569 ft | 426 kts | 326° |
| 2026-04-14 21:23 | -24.93877 | 134.59713 | 25984 ft | 422 kts | 322° |
| 2026-04-14 21:23 | -24.91506 | 134.57825 | 25435 ft | 419 kts | 321° |
| 2026-04-14 21:24 | -24.89148 | 134.55953 | 24879 ft | 417 kts | 321° |
| 2026-04-14 21:24 | -24.86795 | 134.54095 | 24311 ft | 416 kts | 321° |
| 2026-04-14 21:24 | -24.84442 | 134.52240 | 23745 ft | 415 kts | 321° |
| 2026-04-14 21:24 | -24.82096 | 134.50395 | 23106 ft | 414 kts | 321° |
| 2026-04-14 21:25 | -24.79758 | 134.48558 | 22529 ft | 411 kts | 321° |
| 2026-04-14 21:25 | -24.77436 | 134.46734 | 21975 ft | 409 kts | 322° |
| 2026-04-14 21:25 | -24.75124 | 134.44919 | 21447 ft | 406 kts | 322° |
| 2026-04-14 21:25 | -24.72828 | 134.43117 | 20908 ft | 404 kts | 322° |
| 2026-04-14 21:26 | -24.70543 | 134.41326 | 20403 ft | 402 kts | 322° |
| 2026-04-14 21:26 | -24.68268 | 134.39542 | 19887 ft | 400 kts | 323° |
| 2026-04-14 21:26 | -24.66004 | 134.37768 | 19363 ft | 399 kts | 323° |
| 2026-04-14 21:26 | -24.63743 | 134.35997 | 18843 ft | 399 kts | 323° |
| 2026-04-14 21:27 | -24.61512 | 134.34249 | 18294 ft | 399 kts | 323° |
| 2026-04-14 21:27 | -24.59255 | 134.32484 | 17730 ft | 398 kts | 324° |
| 2026-04-14 21:27 | -24.57005 | 134.30724 | 17195 ft | 396 kts | 324° |
| 2026-04-14 21:27 | -24.54765 | 134.28973 | 16680 ft | 394 kts | 324° |
| 2026-04-14 21:28 | -24.52532 | 134.27227 | 16163 ft | 393 kts | 324° |
| 2026-04-14 21:28 | -24.50308 | 134.25490 | 15664 ft | 392 kts | 324° |
| 2026-04-14 21:28 | -24.48085 | 134.23755 | 15160 ft | 391 kts | 324° |
| 2026-04-14 21:28 | -24.45868 | 134.22024 | 14665 ft | 391 kts | 324° |
| 2026-04-14 21:29 | -24.43653 | 134.20296 | 14153 ft | 391 kts | 325° |
| 2026-04-14 21:29 | -24.41435 | 134.18567 | 13608 ft | 391 kts | 325° |
| 2026-04-14 21:29 | -24.39224 | 134.16843 | 13090 ft | 390 kts | 325° |
| 2026-04-14 21:29 | -24.37017 | 134.15125 | 12567 ft | 388 kts | 325° |
| 2026-04-14 21:30 | -24.34818 | 134.13412 | 12102 ft | 387 kts | 326° |
| 2026-04-14 21:30 | -24.32661 | 134.11732 | 11604 ft | 372 kts | 326° |
| 2026-04-14 21:30 | -24.30596 | 134.10123 | 11241 ft | 354 kts | 326° |
| 2026-04-14 21:30 | -24.28652 | 134.08610 | 11034 ft | 334 kts | 326° |
| 2026-04-14 21:31 | -24.26813 | 134.07179 | 10811 ft | 314 kts | 326° |
| 2026-04-14 21:31 | -24.25095 | 134.05842 | 10664 ft | 293 kts | 326° |
| 2026-04-14 21:31 | -24.23484 | 134.04590 | 10522 ft | 274 kts | 327° |
| 2026-04-14 21:31 | -24.21968 | 134.03413 | 10448 ft | 275 kts | 327° |
| 2026-04-14 21:32 | -24.20367 | 134.02175 | 10372 ft | 285 kts | 327° |
| 2026-04-14 21:32 | -24.18740 | 134.00914 | 10107 ft | 289 kts | 327° |
| 2026-04-14 21:32 | -24.17092 | 133.99636 | 9755 ft | 289 kts | 327° |
| 2026-04-14 21:32 | -24.15458 | 133.98367 | 9430 ft | 285 kts | 327° |
| 2026-04-14 21:33 | -24.13848 | 133.97118 | 9063 ft | 282 kts | 327° |
| 2026-04-14 21:33 | -24.12247 | 133.95892 | 8661 ft | 278 kts | 331° |
| 2026-04-14 21:33 | -24.10491 | 133.95056 | 8143 ft | 274 kts | 351° |
| 2026-04-14 21:33 | -24.08628 | 133.95080 | 7696 ft | 267 kts | 19° |
| 2026-04-14 21:34 | -24.06924 | 133.95839 | 7321 ft | 263 kts | 28° |
| 2026-04-14 21:34 | -24.05307 | 133.96757 | 6968 ft | 261 kts | 30° |
| 2026-04-14 21:34 | -24.03714 | 133.97697 | 6617 ft | 259 kts | 30° |
| 2026-04-14 21:34 | -24.02138 | 133.98639 | 6250 ft | 257 kts | 30° |
| 2026-04-14 21:35 | -24.00590 | 133.99562 | 5908 ft | 255 kts | 30° |
| 2026-04-14 21:35 | -23.99041 | 134.00477 | 5580 ft | 252 kts | 31° |
| 2026-04-14 21:35 | -23.97491 | 134.01340 | 5544 ft | 248 kts | 22° |
| 2026-04-14 21:35 | -23.95807 | 134.01608 | 5539 ft | 242 kts | 1° |
| 2026-04-14 21:36 | -23.94139 | 134.01520 | 5538 ft | 239 kts | 0° |
| 2026-04-14 21:36 | -23.92488 | 134.01427 | 5532 ft | 237 kts | 0° |
| 2026-04-14 21:36 | -23.90843 | 134.01332 | 5540 ft | 237 kts | 0° |
| 2026-04-14 21:36 | -23.89198 | 134.01235 | 5530 ft | 237 kts | 0° |
| 2026-04-14 21:37 | -23.87552 | 134.01137 | 5531 ft | 237 kts | 0° |
| 2026-04-14 21:37 | -23.85905 | 134.01035 | 5529 ft | 236 kts | 358° |
| 2026-04-14 21:37 | -23.84376 | 134.00449 | 5509 ft | 238 kts | 320° |
| 2026-04-14 21:37 | -23.83533 | 133.98908 | 5521 ft | 244 kts | 279° |
| 2026-04-14 21:38 | -23.83391 | 133.97069 | 5552 ft | 245 kts | 281° |
| 2026-04-14 21:38 | -23.82917 | 133.95268 | 5539 ft | 248 kts | 294° |
| 2026-04-14 21:38 | -23.82201 | 133.93564 | 5523 ft | 245 kts | 299° |
| 2026-04-14 21:38 | -23.81409 | 133.91941 | 5511 ft | 240 kts | 301° |
| 2026-04-14 21:39 | -23.80604 | 133.90355 | 5518 ft | 239 kts | 302° |
| 2026-04-14 21:39 | -23.79778 | 133.88775 | 5533 ft | 240 kts | 302° |
| 2026-04-14 21:39 | -23.78974 | 133.87179 | 5527 ft | 241 kts | 294° |
| 2026-04-14 21:39 | -23.78606 | 133.85394 | 5523 ft | 243 kts | 270° |
| 2026-04-14 21:40 | -23.78905 | 133.83593 | 5529 ft | 243 kts | 245° |
| 2026-04-14 21:40 | -23.79825 | 133.82070 | 5531 ft | 240 kts | 221° |
| 2026-04-14 21:40 | -23.81174 | 133.81073 | 5535 ft | 236 kts | 198° |
| 2026-04-14 21:40 | -23.82743 | 133.80631 | 5529 ft | 232 kts | 188° |
| 2026-04-14 21:41 | -23.84326 | 133.80243 | 5544 ft | 234 kts | 190° |
| 2026-04-14 21:41 | -23.85922 | 133.79822 | 5539 ft | 237 kts | 190° |
| 2026-04-14 21:41 | -23.87533 | 133.79392 | 5539 ft | 239 kts | 191° |
| 2026-04-14 21:41 | -23.89156 | 133.78958 | 5537 ft | 241 kts | 190° |
| 2026-04-14 21:42 | -23.90773 | 133.78593 | 5522 ft | 232 kts | 177° |
| 2026-04-14 21:42 | -23.92278 | 133.78974 | 5547 ft | 220 kts | 143° |
| 2026-04-14 21:42 | -23.93328 | 133.80145 | 5561 ft | 217 kts | 120° |
| 2026-04-14 21:42 | -23.94104 | 133.81596 | 5550 ft | 224 kts | 116° |
| 2026-04-14 21:43 | -23.94839 | 133.83089 | 5539 ft | 221 kts | 116° |
| 2026-04-14 21:43 | -23.95556 | 133.84554 | 5530 ft | 217 kts | 115° |
| 2026-04-14 21:43 | -23.96262 | 133.86004 | 5535 ft | 216 kts | 115° |
| 2026-04-14 21:43 | -23.96966 | 133.87457 | 5548 ft | 217 kts | 115° |
| 2026-04-14 21:44 | -23.97674 | 133.88921 | 5557 ft | 218 kts | 115° |
| 2026-04-14 21:44 | -23.98385 | 133.90394 | 5550 ft | 220 kts | 115° |
| 2026-04-14 21:44 | -23.99099 | 133.91878 | 5567 ft | 227 kts | 115° |
| 2026-04-14 21:44 | -23.99838 | 133.93417 | 5545 ft | 229 kts | 115° |
| 2026-04-14 21:45 | -24.00372 | 133.95047 | 5385 ft | 224 kts | 91° |
| 2026-04-14 21:45 | -24.00161 | 133.96688 | 5169 ft | 221 kts | 77° |
| 2026-04-14 21:45 | -23.99830 | 133.98330 | 4991 ft | 221 kts | 78° |
| 2026-04-14 21:45 | -23.99515 | 133.99970 | 4870 ft | 220 kts | 78° |
| 2026-04-14 21:46 | -23.99192 | 134.01598 | 4710 ft | 217 kts | 74° |
| 2026-04-14 21:46 | -23.98440 | 134.03018 | 4415 ft | 223 kts | 43° |
| 2026-04-14 21:46 | -23.97045 | 134.03736 | 4321 ft | 227 kts | 13° |
| 2026-04-14 21:46 | -23.95456 | 134.03884 | 4261 ft | 230 kts | 8° |
| 2026-04-14 21:47 | -23.93842 | 134.03983 | 4261 ft | 234 kts | 8° |
| 2026-04-14 21:47 | -23.92214 | 134.04081 | 4254 ft | 234 kts | 7° |
| 2026-04-14 21:47 | -23.90591 | 134.04167 | 4229 ft | 232 kts | 4° |
| 2026-04-14 21:47 | -23.89005 | 134.03824 | 4216 ft | 237 kts | 335° |
| 2026-04-14 21:48 | -23.87736 | 134.02658 | 4233 ft | 242 kts | 309° |
| 2026-04-14 21:48 | -23.86859 | 134.01098 | 4236 ft | 241 kts | 302° |
| 2026-04-14 21:48 | -23.86033 | 133.99503 | 4220 ft | 242 kts | 302° |
| 2026-04-14 21:48 | -23.85207 | 133.97903 | 4164 ft | 243 kts | 302° |
| 2026-04-14 21:49 | -23.84385 | 133.96302 | 3958 ft | 238 kts | 301° |
| 2026-04-14 21:49 | -23.83602 | 133.94768 | 3761 ft | 227 kts | 301° |
| 2026-04-14 21:49 | -23.82843 | 133.93277 | 3528 ft | 219 kts | 301° |
| 2026-04-14 21:49 | -23.82088 | 133.91845 | 3491 ft | 222 kts | 305° |
| 2026-04-14 21:50 | -23.81052 | 133.90613 | 3484 ft | 215 kts | 330° |
| 2026-04-14 21:50 | -23.79722 | 133.89995 | 3529 ft | 204 kts | 358° |
| 2026-04-14 21:50 | -23.78412 | 133.90237 | 3530 ft | 190 kts | 39° |
| 2026-04-14 21:50 | -23.77630 | 133.91301 | 3574 ft | 178 kts | 77° |
| 2026-04-14 21:51 | -23.77561 | 133.92625 | 3977 ft | 178 kts | 94° |
| 2026-04-14 21:51 | -23.77737 | 133.94027 | 3973 ft | 190 kts | 100° |
| 2026-04-14 21:51 | -23.78050 | 133.95408 | 3972 ft | 186 kts | 105° |
| 2026-04-14 21:51 | -23.78461 | 133.96763 | 3687 ft | 191 kts | 108° |
| 2026-04-14 21:52 | -23.78955 | 133.98156 | 2938 ft | 206 kts | 111° |
| 2026-04-14 21:52 | -23.79476 | 133.99556 | 2849 ft | 194 kts | 112° |
| 2026-04-14 21:52 | -23.79817 | 134.00475 | 2902 ft | 193 kts | 111° |
| 2026-04-14 21:52 | -23.80296 | 134.01806 | 3069 ft | 186 kts | 110° |
| 2026-04-14 21:53 | -23.80717 | 134.03077 | 3524 ft | 174 kts | 107° |
| 2026-04-14 21:53 | -23.81094 | 134.04358 | 4078 ft | 183 kts | 109° |
| 2026-04-14 21:53 | -23.81803 | 134.05558 | 4190 ft | 199 kts | 133° |
| 2026-04-14 21:53 | -23.83035 | 134.06340 | 3755 ft | 212 kts | 158° |
| 2026-04-14 21:54 | -23.84484 | 134.06551 | 3440 ft | 211 kts | 177° |
| 2026-04-14 21:54 | -23.85824 | 134.06078 | 3164 ft | 207 kts | 218° |
| 2026-04-14 21:54 | -23.86474 | 134.04747 | 2942 ft | 192 kts | 263° |
| 2026-04-14 21:54 | -23.86299 | 134.03400 | 2740 ft | 168 kts | 290° |
| 2026-04-14 21:55 | -23.85879 | 134.02224 | 2664 ft | 170 kts | 294° |
| 2026-04-14 21:55 | -23.85363 | 134.01069 | 2747 ft | 174 kts | 295° |
| 2026-04-14 21:55 | -23.84876 | 133.99821 | 2830 ft | 180 kts | 291° |
| 2026-04-14 21:55 | -23.84446 | 133.98534 | 2924 ft | 184 kts | 289° |
| 2026-04-14 21:56 | -23.84081 | 133.97207 | 3001 ft | 186 kts | 288° |
| 2026-04-14 21:56 | -23.83592 | 133.95877 | 2772 ft | 187 kts | 296° |
| 2026-04-14 21:56 | -23.82976 | 133.94671 | 2504 ft | 178 kts | 301° |
| 2026-04-14 21:56 | -23.82350 | 133.93537 | 2220 ft | 169 kts | 301° |
| 2026-04-14 21:57 | -23.81806 | 133.92482 | 2037 ft | 147 kts | 300° |
| 2026-04-14 21:57 | -23.81310 | 133.91582 | 1840 ft | 134 kts | 299° |
| 2026-04-14 21:57 | -23.80868 | 133.90743 | 1785 ft | 119 kts | 300° |
| 2026-04-14 21:57 | -23.80523 | 133.90088 | 1787 ft | 61 kts | 304° |
| 2026-04-14 21:58 | -23.80307 | 133.89717 | 1787 ft | 57 kts | 304° |
| 2026-04-14 21:58 | -23.80200 | 133.89522 | 1787 ft | 24 kts | 298° |
| 2026-04-14 21:58 | -23.80154 | 133.89378 | 1786 ft | 16 kts | 293° |
| 2026-04-14 21:58 | -23.80088 | 133.89293 | 1789 ft | 10 kts | 315° |
| 2026-04-14 21:59 | -23.80031 | 133.89318 | 1789 ft | 10 kts | 57° |
| 2026-04-14 21:59 | -23.79995 | 133.89387 | 1788 ft | 11 kts | 61° |
| 2026-04-14 21:59 | -23.79985 | 133.89464 | 1787 ft | 11 kts | 104° |
| 2026-04-14 21:59 | -23.80018 | 133.89537 | 1789 ft | 11 kts | 122° |
| 2026-04-14 22:00 | -23.80059 | 133.89609 | 1789 ft | 11 kts | 120° |
| 2026-04-14 22:00 | -23.80098 | 133.89683 | 1788 ft | 11 kts | 120° |
| 2026-04-14 22:00 | -23.80137 | 133.89756 | 1788 ft | 11 kts | 120° |
| 2026-04-14 22:00 | -23.80178 | 133.89831 | 1788 ft | 12 kts | 120° |
| 2026-04-14 22:01 | -23.80220 | 133.89909 | 1787 ft | 12 kts | 121° |
| 2026-04-14 22:01 | -23.80261 | 133.89984 | 1787 ft | 12 kts | 121° |
| 2026-04-14 22:01 | -23.80332 | 133.90002 | 1787 ft | 12 kts | 201° |
| 2026-04-14 22:01 | -23.80403 | 133.89956 | 1788 ft | 12 kts | 213° |
| 2026-04-14 22:02 | -23.80475 | 133.89909 | 1788 ft | 12 kts | 210° |
| 2026-04-14 22:02 | -23.80547 | 133.89864 | 1787 ft | 12 kts | 209° |
| 2026-04-14 22:02 | -23.80670 | 133.89680 | 1787 ft | 0 kts | 120° |